sensor_id;sensor_type;location;lat;lon;timestamp;pressure;altitude;pressure_sealevel;temperature;humidity
22872;BME280;11603;44.910;8.630;2023-03-22T00:00:34;100546.78;;;13.21;100.00
22872;BME280;11603;44.910;8.630;2023-03-22T00:03:01;100550.56;;;13.19;100.00
22872;BME280;11603;44.910;8.630;2023-03-22T00:05:27;100545.19;;;13.19;100.00
22872;BME280;11603;44.910;8.630;2023-03-22T00:07:55;100543.13;;;13.22;100.00
22872;BME280;11603;44.910;8.630;2023-03-22T00:10:25;100545.81;;;13.22;100.00
22872;BME280;11603;44.910;8.630;2023-03-22T00:12:52;100548.16;;;13.27;100.00
22872;BME280;11603;44.910;8.630;2023-03-22T00:15:17;100547.28;;;13.26;100.00
22872;BME280;11603;44.910;8.630;2023-03-22T00:17:43;100543.66;;;13.27;100.00
22872;BME280;11603;44.910;8.630;2023-03-22T00:20:10;100543.53;;;13.29;100.00
22872;BME280;11603;44.910;8.630;2023-03-22T00:22:36;100540.63;;;13.32;100.00
22872;BME280;11603;44.910;8.630;2023-03-22T00:25:02;100545.13;;;13.31;100.00
22872;BME280;11603;44.910;8.630;2023-03-22T00:27:28;100543.53;;;13.29;100.00
22872;BME280;11603;44.910;8.630;2023-03-22T00:29:54;100546.34;;;13.27;100.00
22872;BME280;11603;44.910;8.630;2023-03-22T00:32:20;100542.88;;;13.25;100.00
22872;BME280;11603;44.910;8.630;2023-03-22T00:34:45;100540.09;;;13.27;100.00
22872;BME280;11603;44.910;8.630;2023-03-22T00:37:11;100544.25;;;13.31;100.00
22872;BME280;11603;44.910;8.630;2023-03-22T00:39:36;100539.75;;;13.31;100.00
22872;BME280;11603;44.910;8.630;2023-03-22T00:42:03;100536.34;;;13.29;100.00
22872;BME280;11603;44.910;8.630;2023-03-22T00:44:31;100549.03;;;13.27;100.00
22872;BME280;11603;44.910;8.630;2023-03-22T00:46:56;100552.66;;;13.26;100.00
22872;BME280;11603;44.910;8.630;2023-03-22T00:49:22;100541.47;;;13.32;100.00
22872;BME280;11603;44.910;8.630;2023-03-22T00:51:48;100538.81;;;13.20;100.00
22872;BME280;11603;44.910;8.630;2023-03-22T00:54:13;100536.38;;;13.17;100.00
22872;BME280;11603;44.910;8.630;2023-03-22T00:56:40;100529.38;;;13.14;100.00
22872;BME280;11603;44.910;8.630;2023-03-22T00:59:12;100527.97;;;13.08;100.00
22872;BME280;11603;44.910;8.630;2023-03-22T01:01:40;100526.38;;;13.06;100.00
22872;BME280;11603;44.910;8.630;2023-03-22T01:04:05;100524.38;;;12.97;100.00
22872;BME280;11603;44.910;8.630;2023-03-22T01:06:32;100529.88;;;12.95;100.00
22872;BME280;11603;44.910;8.630;2023-03-22T01:08:57;100526.56;;;12.92;100.00
22872;BME280;11603;44.910;8.630;2023-03-22T01:11:23;100528.13;;;12.94;100.00
22872;BME280;11603;44.910;8.630;2023-03-22T01:13:49;100519.56;;;12.89;100.00
22872;BME280;11603;44.910;8.630;2023-03-22T01:16:16;100523.34;;;12.87;100.00
22872;BME280;11603;44.910;8.630;2023-03-22T01:18:41;100527.84;;;12.86;100.00
22872;BME280;11603;44.910;8.630;2023-03-22T01:21:08;100520.25;;;12.80;100.00
22872;BME280;11603;44.910;8.630;2023-03-22T01:23:35;100523.44;;;12.85;100.00
22872;BME280;11603;44.910;8.630;2023-03-22T01:26:01;100531.06;;;12.91;100.00
22872;BME280;11603;44.910;8.630;2023-03-22T01:28:28;100523.53;;;12.96;100.00
22872;BME280;11603;44.910;8.630;2023-03-22T01:30:54;100531.25;;;13.01;100.00
22872;BME280;11603;44.910;8.630;2023-03-22T01:33:20;100532.13;;;12.89;100.00
22872;BME280;11603;44.910;8.630;2023-03-22T01:35:45;100538.69;;;12.85;100.00
22872;BME280;11603;44.910;8.630;2023-03-22T01:38:12;100536.44;;;12.91;100.00
22872;BME280;11603;44.910;8.630;2023-03-22T01:40:47;100533.88;;;12.77;100.00
22872;BME280;11603;44.910;8.630;2023-03-22T01:43:14;100541.72;;;12.80;100.00
22872;BME280;11603;44.910;8.630;2023-03-22T01:45:52;100545.25;;;12.81;100.00
22872;BME280;11603;44.910;8.630;2023-03-22T01:48:39;100543.44;;;12.81;100.00
22872;BME280;11603;44.910;8.630;2023-03-22T01:51:11;100537.75;;;12.73;100.00
22872;BME280;11603;44.910;8.630;2023-03-22T01:53:57;100538.19;;;12.67;100.00
22872;BME280;11603;44.910;8.630;2023-03-22T01:56:27;100539.38;;;12.63;100.00
22872;BME280;11603;44.910;8.630;2023-03-22T01:58:55;100532.63;;;12.57;100.00
22872;BME280;11603;44.910;8.630;2023-03-22T02:01:27;100531.03;;;12.55;100.00
22872;BME280;11603;44.910;8.630;2023-03-22T02:04:07;100531.88;;;12.55;100.00
22872;BME280;11603;44.910;8.630;2023-03-22T02:06:35;100525.66;;;12.55;100.00
22872;BME280;11603;44.910;8.630;2023-03-22T02:09:10;100526.00;;;12.50;100.00
22872;BME280;11603;44.910;8.630;2023-03-22T02:11:45;100532.31;;;12.37;100.00
22872;BME280;11603;44.910;8.630;2023-03-22T02:15:00;100531.78;;;12.31;100.00
22872;BME280;11603;44.910;8.630;2023-03-22T02:20:50;100538.22;;;12.29;100.00
22872;BME280;11603;44.910;8.630;2023-03-22T02:32:27;100531.47;;;12.11;100.00
22872;BME280;11603;44.910;8.630;2023-03-22T02:35:18;100536.09;;;12.09;100.00
22872;BME280;11603;44.910;8.630;2023-03-22T02:42:58;100525.97;;;12.00;100.00
22872;BME280;11603;44.910;8.630;2023-03-22T02:45:33;100529.63;;;11.99;100.00
22872;BME280;11603;44.910;8.630;2023-03-22T02:48:27;100537.34;;;11.91;100.00
22872;BME280;11603;44.910;8.630;2023-03-22T02:51:05;100530.56;;;11.85;100.00
22872;BME280;11603;44.910;8.630;2023-03-22T02:53:49;100530.78;;;11.82;100.00
22872;BME280;11603;44.910;8.630;2023-03-22T02:56:20;100527.13;;;11.83;100.00
22872;BME280;11603;44.910;8.630;2023-03-22T02:58:57;100529.94;;;11.81;100.00
22872;BME280;11603;44.910;8.630;2023-03-22T03:03:52;100539.03;;;11.79;100.00
22872;BME280;11603;44.910;8.630;2023-03-22T03:06:21;100539.78;;;11.81;100.00
22872;BME280;11603;44.910;8.630;2023-03-22T03:08:50;100529.06;;;11.81;100.00
22872;BME280;11603;44.910;8.630;2023-03-22T03:11:19;100539.34;;;11.74;100.00
22872;BME280;11603;44.910;8.630;2023-03-22T03:13:47;100541.31;;;11.58;100.00
22872;BME280;11603;44.910;8.630;2023-03-22T03:16:19;100545.72;;;11.32;100.00
22872;BME280;11603;44.910;8.630;2023-03-22T03:18:51;100550.81;;;11.23;100.00
22872;BME280;11603;44.910;8.630;2023-03-22T03:26:59;100550.00;;;11.08;100.00
22872;BME280;11603;44.910;8.630;2023-03-22T03:34:49;100558.63;;;10.99;100.00
22872;BME280;11603;44.910;8.630;2023-03-22T03:37:19;100559.28;;;11.02;100.00
22872;BME280;11603;44.910;8.630;2023-03-22T03:39:53;100556.53;;;11.04;100.00
22872;BME280;11603;44.910;8.630;2023-03-22T03:42:20;100562.53;;;11.08;100.00
22872;BME280;11603;44.910;8.630;2023-03-22T03:44:48;100558.69;;;11.12;100.00
22872;BME280;11603;44.910;8.630;2023-03-22T03:47:14;100560.50;;;11.11;100.00
22872;BME280;11603;44.910;8.630;2023-03-22T03:49:40;100559.19;;;11.04;100.00
22872;BME280;11603;44.910;8.630;2023-03-22T03:52:06;100559.59;;;10.98;100.00
22872;BME280;11603;44.910;8.630;2023-03-22T03:54:31;100562.44;;;10.95;100.00
22872;BME280;11603;44.910;8.630;2023-03-22T03:56:57;100559.19;;;10.90;100.00
22872;BME280;11603;44.910;8.630;2023-03-22T03:59:23;100563.69;;;10.89;100.00
22872;BME280;11603;44.910;8.630;2023-03-22T04:01:50;100561.00;;;10.89;100.00
22872;BME280;11603;44.910;8.630;2023-03-22T04:04:25;100562.09;;;10.87;100.00
22872;BME280;11603;44.910;8.630;2023-03-22T04:07:03;100564.75;;;10.87;100.00
22872;BME280;11603;44.910;8.630;2023-03-22T04:09:33;100562.25;;;10.84;100.00
22872;BME280;11603;44.910;8.630;2023-03-22T04:12:10;100565.94;;;10.83;100.00
22872;BME280;11603;44.910;8.630;2023-03-22T04:14:36;100569.06;;;10.75;100.00
22872;BME280;11603;44.910;8.630;2023-03-22T04:17:08;100573.84;;;10.70;100.00
22872;BME280;11603;44.910;8.630;2023-03-22T04:19:34;100574.63;;;10.72;100.00
22872;BME280;11603;44.910;8.630;2023-03-22T04:22:00;100579.00;;;10.73;100.00
22872;BME280;11603;44.910;8.630;2023-03-22T04:24:26;100570.13;;;10.73;100.00
22872;BME280;11603;44.910;8.630;2023-03-22T04:26:51;100570.97;;;10.73;100.00
22872;BME280;11603;44.910;8.630;2023-03-22T04:29:23;100575.50;;;10.73;100.00
22872;BME280;11603;44.910;8.630;2023-03-22T04:31:53;100569.16;;;10.74;100.00
22872;BME280;11603;44.910;8.630;2023-03-22T04:34:22;100570.03;;;10.74;100.00
22872;BME280;11603;44.910;8.630;2023-03-22T04:37:00;100573.66;;;10.73;100.00
22872;BME280;11603;44.910;8.630;2023-03-22T04:39:36;100564.78;;;10.73;100.00
22872;BME280;11603;44.910;8.630;2023-03-22T04:42:24;100568.13;;;10.76;100.00
22872;BME280;11603;44.910;8.630;2023-03-22T04:45:01;100569.16;;;10.74;100.00
22872;BME280;11603;44.910;8.630;2023-03-22T04:47:28;100568.97;;;10.77;100.00
22872;BME280;11603;44.910;8.630;2023-03-22T04:49:55;100573.00;;;10.70;100.00
22872;BME280;11603;44.910;8.630;2023-03-22T04:52:21;100575.09;;;10.65;100.00
22872;BME280;11603;44.910;8.630;2023-03-22T04:54:51;100578.94;;;10.60;100.00
22872;BME280;11603;44.910;8.630;2023-03-22T04:57:16;100574.31;;;10.62;100.00
22872;BME280;11603;44.910;8.630;2023-03-22T04:59:45;100587.59;;;10.64;100.00
22872;BME280;11603;44.910;8.630;2023-03-22T05:02:11;100576.03;;;10.63;100.00
22872;BME280;11603;44.910;8.630;2023-03-22T05:04:41;100577.00;;;10.62;100.00
22872;BME280;11603;44.910;8.630;2023-03-22T05:07:29;100581.59;;;10.60;100.00
22872;BME280;11603;44.910;8.630;2023-03-22T05:09:57;100577.97;;;10.61;100.00
22872;BME280;11603;44.910;8.630;2023-03-22T05:12:23;100582.56;;;10.59;100.00
22872;BME280;11603;44.910;8.630;2023-03-22T05:14:53;100591.44;;;10.60;100.00
22872;BME280;11603;44.910;8.630;2023-03-22T05:17:23;100593.25;;;10.59;100.00
22872;BME280;11603;44.910;8.630;2023-03-22T05:19:51;100597.06;;;10.55;100.00
22872;BME280;11603;44.910;8.630;2023-03-22T05:22:17;100594.56;;;10.38;100.00
22872;BME280;11603;44.910;8.630;2023-03-22T05:24:46;100601.50;;;10.27;100.00
22872;BME280;11603;44.910;8.630;2023-03-22T05:27:17;100600.06;;;10.21;100.00
22872;BME280;11603;44.910;8.630;2023-03-22T05:30:00;100603.72;;;10.20;100.00
22872;BME280;11603;44.910;8.630;2023-03-22T05:32:37;100599.53;;;10.30;100.00
22872;BME280;11603;44.910;8.630;2023-03-22T05:35:09;100602.09;;;10.32;100.00
22872;BME280;11603;44.910;8.630;2023-03-22T05:37:39;100616.59;;;9.98;100.00
22872;BME280;11603;44.910;8.630;2023-03-22T05:40:06;100620.22;;;9.97;100.00
22872;BME280;11603;44.910;8.630;2023-03-22T05:42:39;100614.66;;;9.86;100.00
22872;BME280;11603;44.910;8.630;2023-03-22T05:45:14;100622.66;;;9.86;100.00
22872;BME280;11603;44.910;8.630;2023-03-22T05:47:43;100619.72;;;9.90;100.00
22872;BME280;11603;44.910;8.630;2023-03-22T05:50:15;100620.81;;;10.02;100.00
22872;BME280;11603;44.910;8.630;2023-03-22T05:52:41;100608.63;;;10.12;100.00
22872;BME280;11603;44.910;8.630;2023-03-22T05:55:19;100610.69;;;10.23;100.00
22872;BME280;11603;44.910;8.630;2023-03-22T05:57:48;100608.31;;;10.32;100.00
22872;BME280;11603;44.910;8.630;2023-03-22T06:00:17;100616.75;;;10.40;100.00
22872;BME280;11603;44.910;8.630;2023-03-22T06:03:03;100623.63;;;10.44;100.00
22872;BME280;11603;44.910;8.630;2023-03-22T06:05:33;100616.81;;;10.39;100.00
22872;BME280;11603;44.910;8.630;2023-03-22T06:08:01;100620.06;;;10.44;100.00
22872;BME280;11603;44.910;8.630;2023-03-22T06:10:26;100618.56;;;10.54;100.00
22872;BME280;11603;44.910;8.630;2023-03-22T06:12:53;100620.06;;;10.44;100.00
22872;BME280;11603;44.910;8.630;2023-03-22T06:15:25;100617.91;;;10.50;100.00
22872;BME280;11603;44.910;8.630;2023-03-22T06:18:00;100624.47;;;10.59;100.00
22872;BME280;11603;44.910;8.630;2023-03-22T06:20:29;100624.03;;;10.67;100.00
22872;BME280;11603;44.910;8.630;2023-03-22T06:23:01;100630.91;;;10.71;100.00
22872;BME280;11603;44.910;8.630;2023-03-22T06:25:27;100628.41;;;10.82;100.00
22872;BME280;11603;44.910;8.630;2023-03-22T06:27:53;100634.31;;;11.01;100.00
22872;BME280;11603;44.910;8.630;2023-03-22T06:30:20;100635.06;;;11.17;100.00
22872;BME280;11603;44.910;8.630;2023-03-22T06:33:09;100637.66;;;11.19;100.00
22872;BME280;11603;44.910;8.630;2023-03-22T06:35:38;100636.97;;;11.15;100.00
22872;BME280;11603;44.910;8.630;2023-03-22T06:38:05;100635.53;;;11.10;100.00
22872;BME280;11603;44.910;8.630;2023-03-22T06:40:32;100642.75;;;11.09;100.00
22872;BME280;11603;44.910;8.630;2023-03-22T06:42:58;100642.25;;;11.02;100.00
22872;BME280;11603;44.910;8.630;2023-03-22T06:45:24;100640.75;;;10.98;100.00
22872;BME280;11603;44.910;8.630;2023-03-22T06:47:50;100643.59;;;10.95;100.00
22872;BME280;11603;44.910;8.630;2023-03-22T06:50:53;100649.72;;;10.97;100.00
22872;BME280;11603;44.910;8.630;2023-03-22T06:53:29;100651.25;;;11.01;100.00
22872;BME280;11603;44.910;8.630;2023-03-22T06:55:55;100650.09;;;11.05;100.00
22872;BME280;11603;44.910;8.630;2023-03-22T06:58:22;100639.56;;;11.17;100.00
22872;BME280;11603;44.910;8.630;2023-03-22T07:00:48;100641.19;;;11.19;100.00
22872;BME280;11603;44.910;8.630;2023-03-22T07:03:15;100638.31;;;11.22;100.00
22872;BME280;11603;44.910;8.630;2023-03-22T07:05:49;100644.44;;;11.24;100.00
22872;BME280;11603;44.910;8.630;2023-03-22T07:08:15;100641.38;;;11.30;100.00
22872;BME280;11603;44.910;8.630;2023-03-22T07:10:48;100650.41;;;11.42;100.00
22872;BME280;11603;44.910;8.630;2023-03-22T07:13:14;100663.88;;;11.55;100.00
22872;BME280;11603;44.910;8.630;2023-03-22T07:15:40;100666.16;;;11.61;100.00
22872;BME280;11603;44.910;8.630;2023-03-22T07:18:31;100667.28;;;11.71;100.00
22872;BME280;11603;44.910;8.630;2023-03-22T07:20:57;100666.06;;;11.76;100.00
22872;BME280;11603;44.910;8.630;2023-03-22T07:23:23;100652.13;;;11.84;100.00
22872;BME280;11603;44.910;8.630;2023-03-22T07:25:51;100659.69;;;11.92;100.00
22872;BME280;11603;44.910;8.630;2023-03-22T07:28:22;100666.75;;;11.93;100.00
22872;BME280;11603;44.910;8.630;2023-03-22T07:30:47;100666.25;;;12.00;100.00
22872;BME280;11603;44.910;8.630;2023-03-22T07:33:15;100669.56;;;12.04;100.00
22872;BME280;11603;44.910;8.630;2023-03-22T07:35:41;100668.09;;;12.12;100.00
22872;BME280;11603;44.910;8.630;2023-03-22T07:38:07;100676.47;;;12.20;100.00
22872;BME280;11603;44.910;8.630;2023-03-22T07:40:32;100670.72;;;12.26;100.00
22872;BME280;11603;44.910;8.630;2023-03-22T07:42:58;100671.16;;;12.33;100.00
22872;BME280;11603;44.910;8.630;2023-03-22T07:45:50;100689.53;;;12.39;100.00
22872;BME280;11603;44.910;8.630;2023-03-22T07:48:47;100681.06;;;12.45;100.00
22872;BME280;11603;44.910;8.630;2023-03-22T07:51:33;100683.53;;;12.48;100.00
22872;BME280;11603;44.910;8.630;2023-03-22T07:54:00;100683.75;;;12.58;100.00
22872;BME280;11603;44.910;8.630;2023-03-22T07:56:26;100694.38;;;12.59;100.00
22872;BME280;11603;44.910;8.630;2023-03-22T07:58:51;100690.19;;;12.68;100.00
22872;BME280;11603;44.910;8.630;2023-03-22T08:01:17;100689.78;;;12.74;100.00
22872;BME280;11603;44.910;8.630;2023-03-22T08:03:53;100699.53;;;12.88;100.00
22872;BME280;11603;44.910;8.630;2023-03-22T08:06:40;100695.03;;;12.88;100.00
22872;BME280;11603;44.910;8.630;2023-03-22T08:09:07;100698.72;;;13.12;100.00
22872;BME280;11603;44.910;8.630;2023-03-22T08:11:34;100700.94;;;13.31;100.00
22872;BME280;11603;44.910;8.630;2023-03-22T08:14:00;100701.56;;;13.09;100.00
22872;BME280;11603;44.910;8.630;2023-03-22T08:16:26;100694.72;;;13.05;100.00
22872;BME280;11603;44.910;8.630;2023-03-22T08:18:52;100694.28;;;12.99;100.00
22872;BME280;11603;44.910;8.630;2023-03-22T08:21:18;100693.31;;;13.00;100.00
22872;BME280;11603;44.910;8.630;2023-03-22T08:23:49;100695.81;;;13.15;100.00
22872;BME280;11603;44.910;8.630;2023-03-22T08:26:34;100686.31;;;13.35;100.00
22872;BME280;11603;44.910;8.630;2023-03-22T08:29:12;100695.22;;;13.48;100.00
22872;BME280;11603;44.910;8.630;2023-03-22T08:31:37;100696.69;;;13.65;100.00
22872;BME280;11603;44.910;8.630;2023-03-22T08:34:03;100691.56;;;13.86;100.00
22872;BME280;11603;44.910;8.630;2023-03-22T08:36:28;100696.13;;;13.96;100.00
22872;BME280;11603;44.910;8.630;2023-03-22T08:38:58;100688.63;;;14.13;100.00
22872;BME280;11603;44.910;8.630;2023-03-22T08:41:38;100687.94;;;14.22;100.00
22872;BME280;11603;44.910;8.630;2023-03-22T08:44:04;100687.22;;;14.31;100.00
22872;BME280;11603;44.910;8.630;2023-03-22T08:46:32;100683.28;;;14.48;100.00
22872;BME280;11603;44.910;8.630;2023-03-22T08:48:58;100680.66;;;14.70;100.00
22872;BME280;11603;44.910;8.630;2023-03-22T08:51:30;100683.97;;;14.73;100.00
22872;BME280;11603;44.910;8.630;2023-03-22T08:54:16;100678.34;;;14.65;100.00
22872;BME280;11603;44.910;8.630;2023-03-22T08:56:51;100683.19;;;14.60;100.00
22872;BME280;11603;44.910;8.630;2023-03-22T08:59:35;100680.44;;;14.84;100.00
22872;BME280;11603;44.910;8.630;2023-03-22T09:02:25;100671.63;;;15.15;100.00
22872;BME280;11603;44.910;8.630;2023-03-22T09:04:52;100684.75;;;15.20;100.00
22872;BME280;11603;44.910;8.630;2023-03-22T09:07:18;100680.69;;;15.37;100.00
22872;BME280;11603;44.910;8.630;2023-03-22T09:09:56;100686.31;;;15.45;100.00
22872;BME280;11603;44.910;8.630;2023-03-22T09:12:23;100680.56;;;15.72;100.00
22872;BME280;11603;44.910;8.630;2023-03-22T09:14:49;100678.06;;;15.91;100.00
22872;BME280;11603;44.910;8.630;2023-03-22T09:17:15;100671.00;;;16.10;100.00
22872;BME280;11603;44.910;8.630;2023-03-22T09:19:43;100673.00;;;16.29;100.00
22872;BME280;11603;44.910;8.630;2023-03-22T09:22:10;100677.03;;;16.35;100.00
22872;BME280;11603;44.910;8.630;2023-03-22T09:24:42;100675.97;;;16.26;100.00
22872;BME280;11603;44.910;8.630;2023-03-22T09:27:07;100671.56;;;16.25;100.00
22872;BME280;11603;44.910;8.630;2023-03-22T09:29:33;100675.91;;;16.37;100.00
22872;BME280;11603;44.910;8.630;2023-03-22T09:32:03;100682.19;;;16.38;100.00
22872;BME280;11603;44.910;8.630;2023-03-22T09:34:31;100674.00;;;16.49;100.00
22872;BME280;11603;44.910;8.630;2023-03-22T09:36:57;100676.66;;;16.60;100.00
22872;BME280;11603;44.910;8.630;2023-03-22T09:39:29;100665.22;;;16.68;100.00
22872;BME280;11603;44.910;8.630;2023-03-22T09:42:00;100669.38;;;16.72;100.00
22872;BME280;11603;44.910;8.630;2023-03-22T09:44:39;100669.06;;;17.16;100.00
22872;BME280;11603;44.910;8.630;2023-03-22T09:47:15;100661.38;;;17.21;100.00
22872;BME280;11603;44.910;8.630;2023-03-22T09:49:44;100653.22;;;17.12;100.00
22872;BME280;11603;44.910;8.630;2023-03-22T09:52:13;100667.50;;;17.23;100.00
22872;BME280;11603;44.910;8.630;2023-03-22T09:54:42;100666.41;;;17.35;100.00
22872;BME280;11603;44.910;8.630;2023-03-22T09:57:29;100660.06;;;17.56;100.00
22872;BME280;11603;44.910;8.630;2023-03-22T10:10:28;100649.78;;;18.28;100.00
22872;BME280;11603;44.910;8.630;2023-03-22T10:13:20;100654.06;;;18.31;100.00
22872;BME280;11603;44.910;8.630;2023-03-22T10:15:50;100647.34;;;18.06;100.00
22872;BME280;11603;44.910;8.630;2023-03-22T10:18:23;100645.53;;;18.26;100.00
22872;BME280;11603;44.910;8.630;2023-03-22T10:26:05;100632.47;;;19.24;94.60
22872;BME280;11603;44.910;8.630;2023-03-22T10:28:43;100633.22;;;19.43;90.99
22872;BME280;11603;44.910;8.630;2023-03-22T10:31:15;100619.78;;;19.42;89.92
22872;BME280;11603;44.910;8.630;2023-03-22T10:33:54;100624.13;;;19.44;88.64
22872;BME280;11603;44.910;8.630;2023-03-22T10:36:25;100624.41;;;19.32;86.78
22872;BME280;11603;44.910;8.630;2023-03-22T10:38:55;100615.59;;;19.30;87.28
22872;BME280;11603;44.910;8.630;2023-03-22T10:41:24;100621.81;;;19.13;88.41
22872;BME280;11603;44.910;8.630;2023-03-22T10:43:58;100621.06;;;19.20;87.96
22872;BME280;11603;44.910;8.630;2023-03-22T10:46:26;100606.94;;;19.44;87.85
22872;BME280;11603;44.910;8.630;2023-03-22T10:48:57;100614.03;;;19.82;81.25
22872;BME280;11603;44.910;8.630;2023-03-22T10:51:28;100613.44;;;19.61;79.48
22872;BME280;11603;44.910;8.630;2023-03-22T10:53:55;100604.38;;;19.70;78.06
22872;BME280;11603;44.910;8.630;2023-03-22T10:56:23;100596.63;;;20.10;75.24
22872;BME280;11603;44.910;8.630;2023-03-22T10:58:49;100592.66;;;20.22;71.96
22872;BME280;11603;44.910;8.630;2023-03-22T11:01:32;100585.47;;;20.31;70.20
22872;BME280;11603;44.910;8.630;2023-03-22T11:04:11;100593.25;;;20.52;69.19
22872;BME280;11603;44.910;8.630;2023-03-22T11:06:40;100586.31;;;20.83;69.04
22872;BME280;11603;44.910;8.630;2023-03-22T11:09:15;100576.44;;;21.08;67.30
22872;BME280;11603;44.910;8.630;2023-03-22T11:11:51;100574.13;;;21.21;66.23
22872;BME280;11603;44.910;8.630;2023-03-22T11:14:30;100566.06;;;21.45;64.42
22872;BME280;11603;44.910;8.630;2023-03-22T11:19:39;100562.03;;;21.66;60.94
22872;BME280;11603;44.910;8.630;2023-03-22T11:24:51;100555.03;;;21.63;60.40
22872;BME280;11603;44.910;8.630;2023-03-22T11:27:25;100551.31;;;21.80;58.46
22872;BME280;11603;44.910;8.630;2023-03-22T11:29:53;100555.09;;;21.95;57.41
22872;BME280;11603;44.910;8.630;2023-03-22T11:32:28;100544.91;;;22.14;56.95
22872;BME280;11603;44.910;8.630;2023-03-22T11:35:03;100543.34;;;22.19;55.99
22872;BME280;11603;44.910;8.630;2023-03-22T11:37:29;100535.34;;;22.10;54.12
22872;BME280;11603;44.910;8.630;2023-03-22T11:40:00;100540.13;;;22.24;54.17
22872;BME280;11603;44.910;8.630;2023-03-22T11:42:26;100529.22;;;22.32;52.84
22872;BME280;11603;44.910;8.630;2023-03-22T11:44:54;100529.53;;;22.37;53.16
22872;BME280;11603;44.910;8.630;2023-03-22T11:47:24;100531.44;;;22.28;52.31
22872;BME280;11603;44.910;8.630;2023-03-22T11:49:50;100522.72;;;22.41;52.87
22872;BME280;11603;44.910;8.630;2023-03-22T11:52:22;100527.63;;;22.54;52.06
22872;BME280;11603;44.910;8.630;2023-03-22T11:54:49;100522.16;;;22.62;50.89
22872;BME280;11603;44.910;8.630;2023-03-22T11:57:19;100513.81;;;22.63;49.97
22872;BME280;11603;44.910;8.630;2023-03-22T11:59:56;100517.22;;;22.82;50.14
22872;BME280;11603;44.910;8.630;2023-03-22T12:02:26;100511.41;;;22.68;48.56
22872;BME280;11603;44.910;8.630;2023-03-22T12:04:57;100508.56;;;22.54;48.26
22872;BME280;11603;44.910;8.630;2023-03-22T12:07:27;100509.25;;;22.48;49.36
22872;BME280;11603;44.910;8.630;2023-03-22T12:10:02;100513.22;;;22.29;49.84
22872;BME280;11603;44.910;8.630;2023-03-22T12:12:31;100510.28;;;22.30;49.04
22872;BME280;11603;44.910;8.630;2023-03-22T12:15:09;100500.25;;;22.31;48.51
22872;BME280;11603;44.910;8.630;2023-03-22T12:17:42;100500.53;;;22.52;48.37
22872;BME280;11603;44.910;8.630;2023-03-22T12:23:15;100495.22;;;23.14;48.67
22872;BME280;11603;44.910;8.630;2023-03-22T12:26:03;100492.34;;;23.38;48.77
22872;BME280;11603;44.910;8.630;2023-03-22T12:31:17;100478.81;;;23.53;46.87
22872;BME280;11603;44.910;8.630;2023-03-22T12:33:52;100474.13;;;23.61;46.83
22872;BME280;11603;44.910;8.630;2023-03-22T12:36:46;100470.06;;;23.80;46.59
22872;BME280;11603;44.910;8.630;2023-03-22T12:39:22;100463.47;;;23.89;45.52
22872;BME280;11603;44.910;8.630;2023-03-22T12:41:49;100455.16;;;23.83;45.07
22872;BME280;11603;44.910;8.630;2023-03-22T12:46:54;100452.69;;;23.96;44.80
22872;BME280;11603;44.910;8.630;2023-03-22T12:49:40;100453.63;;;24.03;44.95
22872;BME280;11603;44.910;8.630;2023-03-22T12:52:16;100447.69;;;23.99;43.91
22872;BME280;11603;44.910;8.630;2023-03-22T12:54:43;100446.53;;;23.94;45.33
22872;BME280;11603;44.910;8.630;2023-03-22T12:57:13;100437.56;;;23.85;45.29
22872;BME280;11603;44.910;8.630;2023-03-22T12:59:41;100441.22;;;23.78;45.25
22872;BME280;11603;44.910;8.630;2023-03-22T13:07:16;100434.97;;;23.23;46.53
22872;BME280;11603;44.910;8.630;2023-03-22T13:09:55;100424.88;;;23.55;46.40
22872;BME280;11603;44.910;8.630;2023-03-22T13:38:34;100398.22;;;24.09;44.57
22872;BME280;11603;44.910;8.630;2023-03-22T13:41:20;100395.59;;;24.01;45.04
22872;BME280;11603;44.910;8.630;2023-03-22T13:43:50;100387.09;;;23.81;44.72
22872;BME280;11603;44.910;8.630;2023-03-22T14:04:43;100368.31;;;23.93;44.31
22872;BME280;11603;44.910;8.630;2023-03-22T14:07:22;100363.69;;;23.79;45.06
22872;BME280;11603;44.910;8.630;2023-03-22T14:09:51;100367.75;;;23.97;44.72
22872;BME280;11603;44.910;8.630;2023-03-22T14:12:27;100363.94;;;24.06;44.70
22872;BME280;11603;44.910;8.630;2023-03-22T14:14:59;100359.59;;;24.12;44.49
22872;BME280;11603;44.910;8.630;2023-03-22T14:17:42;100345.00;;;24.20;44.61
22872;BME280;11603;44.910;8.630;2023-03-22T14:20:14;100341.22;;;24.35;44.52
22872;BME280;11603;44.910;8.630;2023-03-22T14:22:56;100334.44;;;24.31;44.63
22872;BME280;11603;44.910;8.630;2023-03-22T14:25:26;100331.50;;;24.47;44.42
22872;BME280;11603;44.910;8.630;2023-03-22T14:27:53;100330.34;;;24.57;44.10
22872;BME280;11603;44.910;8.630;2023-03-22T14:33:18;100322.84;;;24.65;43.01
22872;BME280;11603;44.910;8.630;2023-03-22T14:35:48;100327.59;;;24.57;43.11
22872;BME280;11603;44.910;8.630;2023-03-22T14:38:20;100320.56;;;24.47;43.70
22872;BME280;11603;44.910;8.630;2023-03-22T14:40:46;100315.81;;;24.56;43.22
22872;BME280;11603;44.910;8.630;2023-03-22T14:45:44;100318.50;;;24.35;43.88
22872;BME280;11603;44.910;8.630;2023-03-22T14:48:18;100306.91;;;24.18;43.98
22872;BME280;11603;44.910;8.630;2023-03-22T14:50:53;100300.91;;;24.23;44.03
22872;BME280;11603;44.910;8.630;2023-03-22T14:53:30;100298.91;;;24.02;44.32
22872;BME280;11603;44.910;8.630;2023-03-22T14:55:56;100302.56;;;23.94;44.65
22872;BME280;11603;44.910;8.630;2023-03-22T14:58:28;100300.09;;;24.14;45.69